Time;durP1;ratioP1;P1;durP2;ratioP2;P2;SDS_P1;SDS_P2;PMS_P1;PMS_P2;Temp;Humidity;BMP_temperature;BMP_pressure;BME280_temperature;BME280_humidity;BME280_pressure;Samples;Min_cycle;Max_cycle;Signal;HPM_P1;HPM_P2
2021/09/18 16:03:19;;;;;;;17.30;8.20;;;;;;;13.22;79.28;98310.30;112676;1196;95801;-74
2021/09/18 16:05:48;;;;;;;16.40;8.00;;;;;;;13.20;79.30;98312.61;112708;1187;107586;-73
2021/09/18 16:08:16;;;;;;;19.80;10.30;;;;;;;13.18;79.31;98307.60;112687;1196;97527;-75
2021/09/18 16:10:44;;;;;;;19.90;10.10;;;;;;;13.17;79.27;98307.25;112758;1196;95809;-74
2021/09/18 16:13:12;;;;;;;14.90;7.70;;;;;;;13.15;79.22;98308.73;112704;1196;112167;-74
2021/09/18 16:15:40;;;;;;;19.90;8.80;;;;;;;13.14;79.20;98301.17;112952;1196;95067;-74
2021/09/18 16:18:08;;;;;;;16.40;9.30;;;;;;;13.12;79.25;98301.11;112791;1196;107631;-72
2021/09/18 16:20:38;;;;;;;14.40;7.60;;;;;;;13.12;79.27;98302.89;112710;1196;97590;-73
2021/09/18 16:23:06;;;;;;;14.90;8.10;;;;;;;13.10;79.21;98300.76;113039;1195;97692;-72
2021/09/18 16:25:34;;;;;;;16.30;7.70;;;;;;;13.07;79.30;98302.10;112835;1195;111174;-74
2021/09/18 16:28:02;;;;;;;17.50;8.70;;;;;;;13.06;79.26;98304.89;112723;1196;97665;-72
2021/09/18 16:30:30;;;;;;;18.40;8.50;;;;;;;13.04;79.22;98300.98;112838;1196;107540;-74
2021/09/18 16:33:01;;;;;;;16.70;9.20;;;;;;;13.03;79.25;98302.31;112770;1196;97715;-72
2021/09/18 16:35:29;;;;;;;19.40;9.90;;;;;;;13.02;79.17;98304.42;112640;1196;97631;-72
2021/09/18 16:37:57;;;;;;;17.30;9.00;;;;;;;13.01;79.24;98305.25;112583;1196;109783;-73
2021/09/18 16:40:25;;;;;;;15.90;8.00;;;;;;;13.00;79.24;98305.70;112806;1196;97744;-72
2021/09/18 16:42:53;;;;;;;16.10;8.60;;;;;;;12.96;79.23;98303.54;112713;1196;107163;-73
2021/09/18 16:45:24;;;;;;;16.10;8.20;;;;;;;12.92;79.24;98303.55;112909;1196;97575;-73
2021/09/18 16:47:54;;;;;;;17.50;9.40;;;;;;;12.89;79.15;98304.90;112834;1196;96930;-73
2021/09/18 16:50:27;;;;;;;15.50;7.90;;;;;;;12.86;79.27;98305.13;112802;1196;111736;-74
2021/09/18 16:52:55;;;;;;;16.70;9.10;;;;;;;12.85;79.21;98306.21;113018;1196;97603;-74
2021/09/18 16:55:23;;;;;;;16.30;8.80;;;;;;;12.81;79.32;98306.01;112951;1196;107538;-73
2021/09/18 16:57:51;;;;;;;16.80;8.90;;;;;;;12.78;79.17;98298.60;112949;1196;97688;-74
2021/09/18 17:00:18;;;;;;;17.40;9.90;;;;;;;12.76;79.25;98299.50;112974;1196;95222;-73
2021/09/18 17:02:46;;;;;;;19.90;9.80;;;;;;;12.74;79.27;98300.96;112783;1196;111250;-73
2021/09/18 17:05:15;;;;;;;15.70;8.00;;;;;;;12.72;79.34;98301.17;112702;1196;95870;-74
2021/09/18 17:07:43;;;;;;;18.20;8.30;;;;;;;12.72;79.39;98303.95;112794;1196;107910;-74
2021/09/18 17:10:15;;;;;;;16.90;8.40;;;;;;;12.72;79.41;98299.37;112826;1196;97641;-77
2021/09/18 17:12:45;;;;;;;17.00;8.70;;;;;;;12.72;79.39;98297.54;112910;1196;97991;-74
2021/09/18 17:15:13;;;;;;;17.60;9.30;;;;;;;12.73;79.42;98296.81;112918;1196;110993;-74
2021/09/18 17:17:41;;;;;;;16.60;9.00;;;;;;;12.71;79.40;98294.84;112933;1196;97604;-77
2021/09/18 17:20:09;;;;;;;20.30;10.30;;;;;;;12.71;79.35;98300.04;112824;1196;107531;-78
2021/09/18 17:22:37;;;;;;;18.80;9.10;;;;;;;12.70;79.39;98300.13;112836;1196;97511;-76
2021/09/18 17:25:06;;;;;;;17.60;10.10;;;;;;;12.68;79.36;98297.60;112873;1196;95061;-71
2021/09/18 17:27:34;;;;;;;19.50;9.30;;;;;;;12.66;79.37;98301.34;112818;1196;111194;-75
2021/09/18 17:30:06;;;;;;;20.50;10.00;;;;;;;12.63;79.39;98300.17;112784;1196;97573;-74
2021/09/18 17:32:40;;;;;;;19.80;10.20;;;;;;;12.61;79.43;98298.81;112803;1196;107526;-76
2021/09/18 17:35:09;;;;;;;19.90;10.10;;;;;;;12.59;79.53;98296.51;112809;1196;97588;-74
2021/09/18 17:37:38;;;;;;;18.60;10.30;;;;;;;12.58;79.49;98294.42;112751;1196;97694;-75
2021/09/18 17:40:09;;;;;;;15.50;8.30;;;;;;;12.57;79.46;98290.76;112815;1196;111140;-74
2021/09/18 17:42:37;;;;;;;18.40;10.00;;;;;;;12.57;79.47;98298.84;112776;1196;97666;-75
2021/09/18 17:45:07;;;;;;;19.50;10.20;;;;;;;12.55;79.49;98296.70;112729;1196;107499;-75
2021/09/18 17:47:35;;;;;;;19.40;11.00;;;;;;;12.54;79.53;98295.53;112802;1195;96117;-79
2021/09/18 17:50:11;;;;;;;20.50;10.10;;;;;;;12.54;79.47;98300.84;112848;1196;96012;-81
2021/09/18 17:52:38;;;;;;;19.20;10.70;;;;;;;12.54;79.55;98302.80;112808;1196;111155;-78
2021/09/18 17:55:08;;;;;;;17.80;9.40;;;;;;;12.55;79.58;98305.25;112953;1196;96554;-80
2021/09/18 17:57:40;;;;;;;19.90;9.80;;;;;;;12.54;79.57;98304.05;112816;1196;106190;-78
2021/09/18 18:00:08;;;;;;;17.40;8.90;;;;;;;12.54;79.68;98306.70;112797;1196;98379;-78
2021/09/18 18:02:36;;;;;;;17.90;8.70;;;;;;;12.55;79.64;98300.95;113124;1196;97746;-76
2021/09/18 18:05:07;;;;;;;16.60;8.20;;;;;;;12.56;79.61;98301.59;112782;1196;111012;-78
2021/09/18 18:07:35;;;;;;;15.90;8.00;;;;;;;12.57;79.73;98302.55;112832;1196;97689;-79
2021/09/18 18:10:07;;;;;;;16.50;7.50;;;;;;;12.57;79.67;98303.42;112719;1196;107500;-78
2021/09/18 18:12:36;;;;;;;15.10;8.10;;;;;;;12.57;79.71;98311.22;112820;1196;98207;-79
2021/09/18 18:15:07;;;;;;;18.10;9.00;;;;;;;12.56;79.67;98329.30;112723;1196;97566;-78
2021/09/18 18:17:35;;;;;;;30.20;17.30;;;;;;;12.57;79.73;98339.55;112765;1197;111356;-78
2021/09/18 18:20:08;;;;;;;11.50;4.30;;;;;;;12.55;79.51;98348.26;112840;1196;95728;-80
2021/09/18 18:22:35;;;;;;;9.80;3.50;;;;;;;12.48;79.42;98345.68;112823;1196;107577;-77
2021/09/18 18:25:08;;;;;;;2.90;2.10;;;;;;;12.41;79.43;98343.47;112799;1196;95071;-77
2021/09/18 18:27:38;;;;;;;6.80;2.90;;;;;;;12.34;79.49;98355.77;112845;1196;97594;-78
2021/09/18 18:30:11;;;;;;;6.70;2.80;;;;;;;12.31;79.50;98359.81;112537;1196;111966;-78
2021/09/18 18:32:41;;;;;;;5.50;2.90;;;;;;;12.29;79.53;98358.09;112789;1196;95732;-79
2021/09/18 18:35:11;;;;;;;4.10;2.30;;;;;;;12.25;79.48;98354.17;112847;1196;107545;-78
2021/09/18 18:37:39;;;;;;;2.50;2.30;;;;;;;12.20;79.46;98355.32;112630;1196;99116;-80
2021/09/18 18:40:12;;;;;;;7.70;3.60;;;;;;;12.15;79.56;98358.06;112686;1196;97591;-80
2021/09/18 18:42:40;;;;;;;;;;;;;;;12.14;79.51;98358.56;112919;1196;111215;-77
2021/09/18 18:45:11;;;;;;;4.70;2.70;;;;;;;12.11;79.57;98355.92;112849;1196;98472;-76
2021/09/18 18:47:43;;;;;;;4.00;1.80;;;;;;;12.09;79.53;98360.21;112737;1196;107597;-77
2021/09/18 18:50:14;;;;;;;3.80;2.10;;;;;;;12.03;79.47;98363.79;112938;1195;97439;-77
2021/09/18 18:52:42;;;;;;;4.00;2.10;;;;;;;11.98;79.44;98360.65;112843;1196;95039;-81
2021/09/18 18:55:13;;;;;;;3.50;1.80;;;;;;;11.92;79.48;98358.36;112886;1196;110231;-77
2021/09/18 18:57:42;;;;;;;3.00;2.20;;;;;;;11.86;79.48;98356.54;112706;1196;97562;-77
2021/09/18 19:00:13;;;;;;;5.30;2.10;;;;;;;11.83;79.60;98362.29;112698;1196;106166;-77
2021/09/18 19:02:42;;;;;;;6.20;2.30;;;;;;;11.81;79.61;98362.48;112785;1196;96198;-76
2021/09/18 19:05:14;;;;;;;5.70;2.60;;;;;;;11.77;79.45;98365.66;112846;1196;95159;-77
2021/09/18 19:07:42;;;;;;;4.50;2.30;;;;;;;11.76;79.60;98364.03;112774;1196;111174;-75
2021/09/18 19:10:18;;;;;;;4.50;2.40;;;;;;;11.74;79.57;98363.44;112836;1195;95857;-75
2021/09/18 19:12:45;;;;;;;3.90;2.10;;;;;;;11.72;79.53;98360.83;112859;1196;107522;-75
2021/09/18 19:15:14;;;;;;;3.30;2.20;;;;;;;11.69;79.63;98363.23;112584;1197;96010;-78
2021/09/18 19:17:43;;;;;;;5.90;1.90;;;;;;;11.68;79.54;98365.08;112774;1196;97568;-79
2021/09/18 19:20:12;;;;;;;4.00;2.20;;;;;;;11.67;79.64;98367.81;112823;1196;111228;-77
2021/09/18 19:22:40;;;;;;;3.60;2.00;;;;;;;11.65;79.61;98368.01;112791;1196;97764;-74
2021/09/18 19:25:09;;;;;;;3.60;2.30;;;;;;;11.61;79.51;98369.23;112649;1196;107467;-74
2021/09/18 19:27:37;;;;;;;4.90;2.40;;;;;;;11.57;79.62;98369.73;112696;1180;96785;-76
2021/09/18 19:30:09;;;;;;;7.10;3.40;;;;;;;11.55;79.42;98372.98;112693;1196;97536;-76
2021/09/18 19:32:37;;;;;;;6.70;3.20;;;;;;;11.52;79.47;98375.70;112045;1196;112421;-74
2021/09/18 19:35:07;;;;;;;7.10;3.70;;;;;;;11.45;79.45;98374.14;112681;1195;97689;-74
2021/09/18 19:37:36;;;;;;;8.20;4.00;;;;;;;11.41;79.36;98375.00;112446;1196;109229;-74
2021/09/18 19:40:05;;;;;;;7.40;3.80;;;;;;;11.38;79.45;98377.83;112516;1190;97719;-76
2021/09/18 19:42:35;;;;;;;9.20;4.20;;;;;;;11.35;79.34;98375.43;112751;1195;97629;-76
2021/09/18 19:45:06;;;;;;;8.10;4.30;;;;;;;11.33;79.50;98377.49;112775;1196;113687;-75
2021/09/18 19:47:34;;;;;;;31.90;16.60;;;;;;;11.30;79.51;98377.89;112704;1196;97580;-75
2021/09/18 19:50:04;;;;;;;12.10;5.00;;;;;;;11.27;79.46;98376.79;112709;1196;108643;-76
2021/09/18 19:52:35;;;;;;;7.60;4.60;;;;;;;11.23;79.53;98378.55;112653;1196;97851;-76
2021/09/18 19:55:03;;;;;;;10.00;5.00;;;;;;;11.21;79.44;98379.78;112684;1196;97578;-75
2021/09/18 19:57:32;;;;;;;12.60;5.40;;;;;;;11.20;79.51;98380.77;112774;1196;111216;-74
2021/09/18 20:00:04;;;;;;;10.00;4.60;;;;;;;11.20;79.51;98378.48;112654;1196;97695;-75
2021/09/18 20:02:32;;;;;;;12.50;5.80;;;;;;;11.18;79.44;98377.17;112789;1196;106031;-73
2021/09/18 20:05:02;;;;;;;13.00;5.20;;;;;;;11.16;79.48;98376.10;112731;1196;98006;-74
2021/09/18 20:07:30;;;;;;;11.40;5.10;;;;;;;11.15;79.50;98374.09;112649;1196;97547;-75
2021/09/18 20:09:58;;;;;;;11.40;4.80;;;;;;;11.13;79.48;98376.36;112801;1196;111262;-75
2021/09/18 20:12:26;;;;;;;10.70;4.90;;;;;;;11.11;79.38;98379.56;112861;1196;97681;-74
2021/09/18 20:14:54;;;;;;;9.30;4.50;;;;;;;11.07;79.32;98376.33;112763;1196;107792;-73
2021/09/18 20:17:25;;;;;;;10.10;4.80;;;;;;;11.02;79.36;98369.15;112859;1196;97560;-75
2021/09/18 20:19:52;;;;;;;10.40;5.00;;;;;;;11.00;79.45;98369.02;112907;1196;97668;-74
2021/09/18 20:22:20;;;;;;;7.50;4.20;;;;;;;10.97;79.40;98370.79;112888;1196;111200;-75
2021/09/18 20:24:53;;;;;;;10.70;4.90;;;;;;;10.93;79.40;98367.98;112885;1197;97621;-74
2021/09/18 20:27:23;;;;;;;9.00;4.60;;;;;;;10.89;79.42;98367.83;113001;1196;108288;-74
2021/09/18 20:29:53;;;;;;;10.60;5.10;;;;;;;10.83;79.37;98369.13;112886;1196;97572;-76
2021/09/18 20:32:22;;;;;;;11.60;5.20;;;;;;;10.79;79.42;98368.08;112861;1196;97666;-76
2021/09/18 20:34:53;;;;;;;12.00;5.10;;;;;;;10.77;79.44;98371.11;112756;1196;111181;-75
2021/09/18 20:37:21;;;;;;;11.00;4.90;;;;;;;10.74;79.45;98370.84;112995;1196;95747;-74
2021/09/18 20:39:49;;;;;;;11.70;5.10;;;;;;;10.70;79.40;98370.77;112791;1197;108935;-74
2021/09/18 20:42:17;;;;;;;11.70;4.60;;;;;;;10.67;79.39;98376.71;112849;1196;95062;-74
2021/09/18 20:44:46;;;;;;;9.20;4.20;;;;;;;10.64;79.35;98372.55;112852;1196;98360;-74
2021/09/18 20:47:18;;;;;;;5.90;3.40;;;;;;;10.61;79.49;98380.04;112718;1196;111283;-71
2021/09/18 20:49:46;;;;;;;9.90;4.00;;;;;;;10.60;79.48;98384.96;112936;1196;97574;-74
2021/09/18 20:52:14;;;;;;;17.50;6.50;;;;;;;10.59;79.47;98386.41;112744;1196;108012;-72
2021/09/18 20:54:42;;;;;;;7.40;3.80;;;;;;;10.58;79.43;98382.61;112819;1196;97669;-75
2021/09/18 20:57:14;;;;;;;5.70;3.10;;;;;;;10.56;79.41;98380.83;112780;1196;97615;-74
2021/09/18 20:59:47;;;;;;;7.60;3.00;;;;;;;10.53;79.43;98386.02;112898;1196;111155;-71
2021/09/18 21:04:50;;;;;;;9.20;3.80;;;;;;;10.49;79.49;98394.65;112856;1196;107495;-74
2021/09/18 21:07:19;;;;;;;5.30;2.90;;;;;;;10.46;79.40;98390.54;112796;1196;97687;-74
2021/09/18 21:09:47;;;;;;;3.50;2.40;;;;;;;10.42;79.36;98391.02;113245;1196;96511;-75
2021/09/18 21:12:14;;;;;;;5.40;2.40;;;;;;;10.39;79.37;98386.64;112793;1196;111156;-71
2021/09/18 21:14:42;;;;;;;6.20;2.40;;;;;;;10.38;79.44;98386.70;112917;1196;97639;-74
2021/09/18 21:17:10;;;;;;;3.80;2.10;;;;;;;10.35;79.34;98385.50;112939;1196;107467;-74
2021/09/18 21:19:38;;;;;;;6.30;2.70;;;;;;;10.34;79.45;98386.70;112895;1196;95118;-75
2021/09/18 21:22:05;;;;;;;3.00;1.90;;;;;;;10.33;79.43;98389.09;112697;1196;96137;-75
2021/09/18 21:24:33;;;;;;;3.20;1.30;;;;;;;10.31;79.40;98388.01;112763;1196;109989;-76
2021/09/18 21:27:01;;;;;;;23.90;11.50;;;;;;;10.28;79.35;98387.45;112872;1196;97553;-74
2021/09/18 21:29:29;;;;;;;4.90;2.60;;;;;;;10.26;79.37;98384.45;112732;1196;106441;-75
2021/09/18 21:31:57;;;;;;;4.10;1.40;;;;;;;10.23;79.44;98387.06;112917;1196;97692;-74
2021/09/18 21:34:25;;;;;;;1.90;1.30;;;;;;;10.18;79.41;98385.46;113013;1196;95048;-73
2021/09/18 21:36:58;;;;;;;2.90;1.70;;;;;;;10.17;79.40;98382.80;113014;1196;111177;-73
2021/09/18 21:39:25;;;;;;;1.30;1.20;;;;;;;10.13;79.31;98381.67;113033;1196;97641;-74
2021/09/18 21:41:53;;;;;;;3.30;1.60;;;;;;;10.10;79.33;98379.77;113039;1196;107549;-74
2021/09/18 21:44:21;;;;;;;2.30;1.30;;;;;;;10.05;79.26;98379.66;112952;1195;97638;-74
2021/09/18 21:46:49;;;;;;;3.60;1.10;;;;;;;9.99;79.38;98378.54;113073;1196;97628;-75
2021/09/18 21:49:16;;;;;;;5.00;1.50;;;;;;;9.94;79.40;98379.80;113001;1196;111292;-74
2021/09/18 21:51:44;;;;;;;3.60;1.60;;;;;;;9.93;79.46;98377.09;113027;1196;97634;-78
2021/09/18 21:54:12;;;;;;;2.30;1.30;;;;;;;9.92;79.46;98376.09;113075;1196;107543;-76
2021/09/18 21:56:40;;;;;;;2.00;1.20;;;;;;;9.91;79.50;98381.52;112938;1196;97665;-75
2021/09/18 21:59:08;;;;;;;5.30;1.40;;;;;;;9.89;79.37;98381.13;112789;1196;97736;-74
2021/09/18 22:01:36;;;;;;;2.10;1.30;;;;;;;9.84;79.39;98380.29;113111;1196;111154;-74
2021/09/18 22:04:13;;;;;;;2.90;1.80;;;;;;;9.81;79.50;98382.22;113011;1196;97673;-73
2021/09/18 22:06:41;;;;;;;2.80;1.90;;;;;;;9.81;79.41;98379.80;112838;1196;107285;-74
2021/09/18 22:09:13;;;;;;;3.50;1.30;;;;;;;9.79;79.38;98379.81;113011;1196;97655;-74
2021/09/18 22:11:41;;;;;;;2.70;1.20;;;;;;;9.77;79.50;98380.65;112723;1197;97582;-74
2021/09/18 22:14:09;;;;;;;5.50;1.50;;;;;;;9.76;79.45;98381.77;113203;1195;111215;-72
2021/09/18 22:16:42;;;;;;;16.70;2.10;;;;;;;9.75;79.46;98385.02;112899;1196;97551;-75
2021/09/18 22:19:10;;;;;;;4.20;1.30;;;;;;;9.73;79.43;98380.47;113042;1196;107492;-77
2021/09/18 22:21:42;;;;;;;4.50;1.80;;;;;;;9.73;79.59;98386.29;113020;1196;95160;-74
2021/09/18 22:24:10;;;;;;;1.50;1.00;;;;;;;9.75;79.58;98388.20;112958;1196;97575;-74
2021/09/18 22:26:39;;;;;;;2.60;1.40;;;;;;;9.75;79.57;98390.16;112955;1196;111027;-74
2021/09/18 22:29:07;;;;;;;1.30;1.00;;;;;;;9.75;79.47;98393.88;113059;1196;95118;-72
2021/09/18 22:31:35;;;;;;;2.80;1.10;;;;;;;9.74;79.44;98401.83;113038;1196;107541;-75
2021/09/18 22:34:03;;;;;;;1.30;0.80;;;;;;;9.71;79.46;98407.14;113030;1196;97631;-74
2021/09/18 22:36:31;;;;;;;2.40;1.20;;;;;;;9.68;79.32;98401.90;113045;1196;97776;-73
2021/09/18 22:38:58;;;;;;;2.10;1.00;;;;;;;9.59;79.17;98407.72;113045;1196;111089;-73
2021/09/18 22:41:26;;;;;;;2.10;0.60;;;;;;;9.51;79.16;98408.72;112960;1196;97570;-73
2021/09/18 22:43:54;;;;;;;1.20;0.60;;;;;;;9.44;79.13;98413.52;112753;1196;107612;-74
2021/09/18 22:46:22;;;;;;;1.40;0.60;;;;;;;9.38;79.09;98409.56;112744;1196;95151;-74
2021/09/18 22:48:50;;;;;;;0.50;0.50;;;;;;;9.28;79.09;98416.15;112793;1196;95135;-74
2021/09/18 22:51:19;;;;;;;1.20;0.50;;;;;;;9.21;79.06;98419.29;112793;1196;110728;-73
2021/09/18 22:53:48;;;;;;;2.90;0.80;;;;;;;9.14;79.03;98414.62;112804;1196;96468;-73
2021/09/18 22:56:16;;;;;;;0.50;0.40;;;;;;;9.07;79.13;98420.95;112774;1197;105583;-74
2021/09/18 22:58:44;;;;;;;4.10;1.00;;;;;;;9.02;79.09;98416.38;112725;1197;97707;-73
2021/09/18 23:01:12;;;;;;;0.50;0.50;;;;;;;8.94;79.20;98423.66;112958;1196;97584;-70
2021/09/18 23:03:41;;;;;;;1.60;0.50;;;;;;;8.89;79.11;98422.26;113067;1195;111293;-74
2021/09/18 23:06:10;;;;;;;0.60;0.30;;;;;;;8.83;79.04;98420.81;112974;1196;96100;-73
2021/09/18 23:08:38;;;;;;;16.20;5.10;;;;;;;8.77;79.01;98419.48;113046;1196;107565;-73
2021/09/18 23:11:06;;;;;;;6.50;2.30;;;;;;;8.73;78.85;98426.15;112924;1197;97691;-72
2021/09/18 23:13:34;;;;;;;1.40;0.90;;;;;;;8.67;79.02;98421.63;112799;1196;95043;-73
2021/09/18 23:16:07;;;;;;;2.40;0.70;;;;;;;8.59;78.98;98421.71;112794;1196;111234;-72
2021/09/18 23:18:35;;;;;;;3.40;1.20;;;;;;;8.47;78.74;98422.08;113149;1195;95074;-73
2021/09/18 23:21:06;;;;;;;1.80;0.60;;;;;;;8.37;78.74;98421.20;113144;1195;107547;-74
2021/09/18 23:23:37;;;;;;;2.30;0.60;;;;;;;8.29;78.85;98422.45;112710;1196;95211;-73
2021/09/18 23:26:08;;;;;;;2.20;0.40;;;;;;;8.23;78.94;98421.35;112794;1196;97614;-72
2021/09/18 23:28:44;;;;;;;4.50;0.70;;;;;;;8.20;79.02;98426.27;112606;1197;111470;-72
2021/09/18 23:31:12;;;;;;;0.40;0.30;;;;;;;8.18;79.08;98423.05;113001;1196;96102;-73
2021/09/18 23:33:40;;;;;;;0.80;0.60;;;;;;;8.12;79.05;98427.25;113081;1195;107457;-74
2021/09/18 23:36:08;;;;;;;1.30;0.60;;;;;;;8.07;78.95;98431.87;112929;1196;97590;-75
2021/09/18 23:38:36;;;;;;;2.20;0.60;;;;;;;8.02;79.18;98439.40;113072;1196;97690;-74
2021/09/18 23:41:04;;;;;;;2.30;0.40;;;;;;;7.96;78.96;98441.80;112996;1196;111170;-75
2021/09/18 23:43:34;;;;;;;1.40;0.60;;;;;;;7.90;79.00;98444.17;112789;1196;97741;-74
2021/09/18 23:46:02;;;;;;;1.90;0.60;;;;;;;7.85;78.82;98442.60;113050;1195;107527;-74
2021/09/18 23:48:30;;;;;;;1.10;0.40;;;;;;;7.79;78.92;98440.73;113026;1196;95135;-75
2021/09/18 23:50:58;;;;;;;0.80;0.40;;;;;;;7.75;78.91;98439.05;113018;1196;97710;-75
2021/09/18 23:53:26;;;;;;;1.00;0.40;;;;;;;7.73;79.08;98435.27;112783;1196;111200;-74
2021/09/18 23:55:57;;;;;;;1.00;0.60;;;;;;;7.73;78.95;98433.91;113053;1196;98280;-72
2021/09/18 23:58:25;;;;;;;2.20;0.50;;;;;;;7.73;79.00;98433.90;113010;1196;107179;-71
